sensor_id;sensor_type;location;lat;lon;timestamp;pressure;altitude;pressure_sealevel;temperature;humidity
59789;BME280;47353;51.614;5.530;2024-01-25T00:01:57;102687.91;;;7.55;100.00
59789;BME280;47353;51.614;5.530;2024-01-25T00:04:23;102689.81;;;7.54;100.00
59789;BME280;47353;51.614;5.530;2024-01-25T00:06:48;102688.56;;;7.50;100.00
59789;BME280;47353;51.614;5.530;2024-01-25T00:09:13;102692.78;;;7.33;100.00
59789;BME280;47353;51.614;5.530;2024-01-25T00:11:39;102687.28;;;7.33;100.00
59789;BME280;47353;51.614;5.530;2024-01-25T00:14:04;102683.47;;;7.54;100.00
59789;BME280;47353;51.614;5.530;2024-01-25T00:16:30;102682.41;;;7.35;100.00
59789;BME280;47353;51.614;5.530;2024-01-25T00:18:55;102692.34;;;7.17;100.00
59789;BME280;47353;51.614;5.530;2024-01-25T00:21:20;102700.81;;;7.09;100.00
59789;BME280;47353;51.614;5.530;2024-01-25T00:23:46;102694.66;;;7.07;100.00
59789;BME280;47353;51.614;5.530;2024-01-25T00:26:12;102696.16;;;7.09;100.00
59789;BME280;47353;51.614;5.530;2024-01-25T00:28:38;102694.19;;;6.90;100.00
59789;BME280;47353;51.614;5.530;2024-01-25T00:31:03;102682.59;;;7.21;100.00
59789;BME280;47353;51.614;5.530;2024-01-25T00:33:29;102683.00;;;6.98;100.00
59789;BME280;47353;51.614;5.530;2024-01-25T00:35:54;102691.28;;;7.24;100.00
59789;BME280;47353;51.614;5.530;2024-01-25T00:38:20;102684.03;;;6.91;100.00
59789;BME280;47353;51.614;5.530;2024-01-25T00:40:46;102699.28;;;6.93;100.00
59789;BME280;47353;51.614;5.530;2024-01-25T00:43:12;102701.38;;;6.91;100.00
59789;BME280;47353;51.614;5.530;2024-01-25T00:45:37;102699.25;;;6.87;100.00
59789;BME280;47353;51.614;5.530;2024-01-25T00:48:03;102701.81;;;6.88;100.00
59789;BME280;47353;51.614;5.530;2024-01-25T00:50:29;102699.28;;;6.93;100.00
59789;BME280;47353;51.614;5.530;2024-01-25T00:52:54;102701.41;;;6.98;100.00
59789;BME280;47353;51.614;5.530;2024-01-25T00:55:20;102706.00;;;6.77;100.00
59789;BME280;47353;51.614;5.530;2024-01-25T00:57:46;102702.84;;;6.80;100.00
59789;BME280;47353;51.614;5.530;2024-01-25T01:00:12;102708.97;;;6.76;100.00
59789;BME280;47353;51.614;5.530;2024-01-25T01:02:44;102705.78;;;6.66;100.00
59789;BME280;47353;51.614;5.530;2024-01-25T01:05:11;102706.03;;;6.84;100.00
59789;BME280;47353;51.614;5.530;2024-01-25T01:07:37;102711.06;;;6.74;100.00
59789;BME280;47353;51.614;5.530;2024-01-25T01:10:03;102708.44;;;6.53;100.00
59789;BME280;47353;51.614;5.530;2024-01-25T01:12:30;102718.66;;;6.65;100.00
59789;BME280;47353;51.614;5.530;2024-01-25T01:14:55;102724.50;;;6.43;100.00
59789;BME280;47353;51.614;5.530;2024-01-25T01:17:21;102718.19;;;6.55;100.00
59789;BME280;47353;51.614;5.530;2024-01-25T01:19:47;102719.09;;;6.62;100.00
59789;BME280;47353;51.614;5.530;2024-01-25T01:22:12;102714.16;;;6.51;100.00
59789;BME280;47353;51.614;5.530;2024-01-25T01:24:37;102718.84;;;6.57;100.00
59789;BME280;47353;51.614;5.530;2024-01-25T01:27:03;102718.59;;;6.46;100.00
59789;BME280;47353;51.614;5.530;2024-01-25T01:29:28;102725.56;;;6.48;100.00
59789;BME280;47353;51.614;5.530;2024-01-25T01:31:54;102722.22;;;6.53;100.00
59789;BME280;47353;51.614;5.530;2024-01-25T01:34:19;102727.50;;;6.54;100.00
59789;BME280;47353;51.614;5.530;2024-01-25T01:36:44;102727.72;;;6.53;100.00
59789;BME280;47353;51.614;5.530;2024-01-25T01:39:10;102729.16;;;6.42;100.00
59789;BME280;47353;51.614;5.530;2024-01-25T01:41:36;102727.22;;;6.36;100.00
59789;BME280;47353;51.614;5.530;2024-01-25T01:44:02;102731.03;;;6.42;100.00
59789;BME280;47353;51.614;5.530;2024-01-25T01:46:35;102739.50;;;6.40;100.00
59789;BME280;47353;51.614;5.530;2024-01-25T01:49:02;102736.28;;;6.30;100.00
59789;BME280;47353;51.614;5.530;2024-01-25T01:51:30;102748.03;;;6.18;100.00
59789;BME280;47353;51.614;5.530;2024-01-25T01:53:56;102756.53;;;6.23;100.00
59789;BME280;47353;51.614;5.530;2024-01-25T01:56:24;102748.59;;;6.07;100.00
59789;BME280;47353;51.614;5.530;2024-01-25T01:58:52;102754.06;;;6.34;100.00
59789;BME280;47353;51.614;5.530;2024-01-25T02:01:19;102762.50;;;6.33;100.00
59789;BME280;47353;51.614;5.530;2024-01-25T02:03:46;102768.91;;;6.40;100.00
59789;BME280;47353;51.614;5.530;2024-01-25T02:06:11;102771.13;;;6.23;100.00
59789;BME280;47353;51.614;5.530;2024-01-25T02:08:36;102769.13;;;6.11;100.00
59789;BME280;47353;51.614;5.530;2024-01-25T02:11:02;102770.44;;;6.15;100.00
59789;BME280;47353;51.614;5.530;2024-01-25T02:13:27;102773.41;;;6.13;100.00
59789;BME280;47353;51.614;5.530;2024-01-25T02:15:53;102775.69;;;6.10;100.00
59789;BME280;47353;51.614;5.530;2024-01-25T02:18:18;102777.88;;;6.21;100.00
59789;BME280;47353;51.614;5.530;2024-01-25T02:20:44;102784.88;;;6.23;100.00
59789;BME280;47353;51.614;5.530;2024-01-25T02:23:09;102789.94;;;6.20;100.00
59789;BME280;47353;51.614;5.530;2024-01-25T02:25:34;102787.63;;;5.96;100.00
59789;BME280;47353;51.614;5.530;2024-01-25T02:28:00;102786.22;;;6.06;100.00
59789;BME280;47353;51.614;5.530;2024-01-25T02:30:25;102784.75;;;6.04;100.00
59789;BME280;47353;51.614;5.530;2024-01-25T02:32:51;102787.75;;;6.09;100.00
59789;BME280;47353;51.614;5.530;2024-01-25T02:35:17;102780.38;;;6.16;100.00
59789;BME280;47353;51.614;5.530;2024-01-25T02:37:43;102799.97;;;6.06;100.00
59789;BME280;47353;51.614;5.530;2024-01-25T02:40:08;102796.16;;;5.80;100.00
59789;BME280;47353;51.614;5.530;2024-01-25T02:42:34;102794.59;;;5.92;100.00
59789;BME280;47353;51.614;5.530;2024-01-25T02:44:59;102780.25;;;5.96;100.00
59789;BME280;47353;51.614;5.530;2024-01-25T02:47:25;102785.09;;;5.73;100.00
59789;BME280;47353;51.614;5.530;2024-01-25T02:49:50;102785.28;;;5.93;100.00
59789;BME280;47353;51.614;5.530;2024-01-25T02:52:15;102782.94;;;5.69;100.00
59789;BME280;47353;51.614;5.530;2024-01-25T02:54:41;102781.09;;;5.97;100.00
59789;BME280;47353;51.614;5.530;2024-01-25T02:57:06;102781.66;;;5.86;100.00
59789;BME280;47353;51.614;5.530;2024-01-25T02:59:32;102784.41;;;5.86;100.00
59789;BME280;47353;51.614;5.530;2024-01-25T03:01:57;102780.50;;;5.80;100.00
59789;BME280;47353;51.614;5.530;2024-01-25T03:04:23;102786.28;;;5.64;100.00
59789;BME280;47353;51.614;5.530;2024-01-25T03:06:48;102790.91;;;5.64;100.00
59789;BME280;47353;51.614;5.530;2024-01-25T03:09:14;102788.16;;;5.64;100.00
59789;BME280;47353;51.614;5.530;2024-01-25T03:11:39;102786.41;;;5.35;100.00
59789;BME280;47353;51.614;5.530;2024-01-25T03:14:05;102783.13;;;5.46;100.00
59789;BME280;47353;51.614;5.530;2024-01-25T03:16:30;102783.78;;;5.48;100.00
59789;BME280;47353;51.614;5.530;2024-01-25T03:18:55;102783.41;;;5.51;100.00
59789;BME280;47353;51.614;5.530;2024-01-25T03:21:21;102783.91;;;5.40;100.00
59789;BME280;47353;51.614;5.530;2024-01-25T03:23:46;102792.63;;;5.44;100.00
59789;BME280;47353;51.614;5.530;2024-01-25T03:26:12;102782.84;;;5.20;100.00
59789;BME280;47353;51.614;5.530;2024-01-25T03:28:37;102785.69;;;5.27;100.00
59789;BME280;47353;51.614;5.530;2024-01-25T03:31:04;102794.38;;;5.51;100.00
59789;BME280;47353;51.614;5.530;2024-01-25T03:33:30;102797.16;;;5.15;100.00
59789;BME280;47353;51.614;5.530;2024-01-25T03:36:00;102802.06;;;5.20;100.00
59789;BME280;47353;51.614;5.530;2024-01-25T03:38:26;102806.53;;;5.21;100.00
59789;BME280;47353;51.614;5.530;2024-01-25T03:40:51;102805.28;;;5.24;100.00
59789;BME280;47353;51.614;5.530;2024-01-25T03:43:17;102801.69;;;5.23;100.00
59789;BME280;47353;51.614;5.530;2024-01-25T03:45:42;102807.75;;;5.18;100.00
59789;BME280;47353;51.614;5.530;2024-01-25T03:48:07;102802.66;;;5.15;100.00
59789;BME280;47353;51.614;5.530;2024-01-25T03:50:33;102795.13;;;5.03;100.00
59789;BME280;47353;51.614;5.530;2024-01-25T03:52:58;102790.31;;;4.90;100.00
59789;BME280;47353;51.614;5.530;2024-01-25T03:55:23;102790.59;;;4.95;100.00
59789;BME280;47353;51.614;5.530;2024-01-25T03:57:49;102794.47;;;5.01;100.00
59789;BME280;47353;51.614;5.530;2024-01-25T04:00:14;102803.13;;;4.83;100.00
59789;BME280;47353;51.614;5.530;2024-01-25T04:02:40;102797.06;;;4.88;100.00
59789;BME280;47353;51.614;5.530;2024-01-25T04:05:05;102801.03;;;4.71;100.00
59789;BME280;47353;51.614;5.530;2024-01-25T04:07:31;102795.56;;;4.85;100.00
59789;BME280;47353;51.614;5.530;2024-01-25T04:09:56;102803.59;;;4.72;100.00
59789;BME280;47353;51.614;5.530;2024-01-25T04:12:22;102808.50;;;4.77;100.00
59789;BME280;47353;51.614;5.530;2024-01-25T04:14:48;102812.97;;;4.78;100.00
59789;BME280;47353;51.614;5.530;2024-01-25T04:17:14;102803.13;;;4.83;100.00
59789;BME280;47353;51.614;5.530;2024-01-25T04:19:39;102811.94;;;4.79;100.00
59789;BME280;47353;51.614;5.530;2024-01-25T04:22:04;102810.72;;;4.67;100.00
59789;BME280;47353;51.614;5.530;2024-01-25T04:24:30;102817.13;;;4.74;100.00
59789;BME280;47353;51.614;5.530;2024-01-25T04:26:55;102814.66;;;4.64;100.00
59789;BME280;47353;51.614;5.530;2024-01-25T04:29:22;102807.78;;;4.68;100.00
59789;BME280;47353;51.614;5.530;2024-01-25T04:31:47;102809.56;;;4.61;100.00
59789;BME280;47353;51.614;5.530;2024-01-25T04:34:14;102800.56;;;4.67;100.00
59789;BME280;47353;51.614;5.530;2024-01-25T04:36:39;102799.44;;;4.62;100.00
59789;BME280;47353;51.614;5.530;2024-01-25T04:39:05;102795.69;;;4.48;100.00
59789;BME280;47353;51.614;5.530;2024-01-25T04:41:31;102805.03;;;4.68;100.00
59789;BME280;47353;51.614;5.530;2024-01-25T04:43:56;102805.50;;;4.57;100.00
59789;BME280;47353;51.614;5.530;2024-01-25T04:46:21;102795.22;;;4.45;100.00
59789;BME280;47353;51.614;5.530;2024-01-25T04:48:47;102790.84;;;4.50;100.00
59789;BME280;47353;51.614;5.530;2024-01-25T04:51:19;102796.50;;;4.49;100.00
59789;BME280;47353;51.614;5.530;2024-01-25T04:53:47;102805.97;;;4.46;100.00
59789;BME280;47353;51.614;5.530;2024-01-25T04:56:13;102798.53;;;4.55;100.00
59789;BME280;47353;51.614;5.530;2024-01-25T04:58:38;102802.22;;;4.33;100.00
59789;BME280;47353;51.614;5.530;2024-01-25T05:01:04;102806.34;;;4.29;100.00
59789;BME280;47353;51.614;5.530;2024-01-25T05:03:29;102805.59;;;4.20;100.00
59789;BME280;47353;51.614;5.530;2024-01-25T05:05:55;102808.56;;;4.33;100.00
59789;BME280;47353;51.614;5.530;2024-01-25T05:08:21;102803.31;;;4.38;100.00
59789;BME280;47353;51.614;5.530;2024-01-25T05:10:46;102799.25;;;4.49;100.00
59789;BME280;47353;51.614;5.530;2024-01-25T05:13:12;102794.94;;;4.25;100.00
59789;BME280;47353;51.614;5.530;2024-01-25T05:15:38;102801.63;;;4.52;100.00
59789;BME280;47353;51.614;5.530;2024-01-25T05:18:03;102809.31;;;4.56;100.00
59789;BME280;47353;51.614;5.530;2024-01-25T05:20:29;102796.91;;;4.60;100.00
59789;BME280;47353;51.614;5.530;2024-01-25T05:22:58;102795.31;;;4.51;100.00
59789;BME280;47353;51.614;5.530;2024-01-25T05:25:24;102787.34;;;4.42;100.00
59789;BME280;47353;51.614;5.530;2024-01-25T05:27:51;102794.63;;;4.49;100.00
59789;BME280;47353;51.614;5.530;2024-01-25T05:30:16;102789.25;;;4.41;100.00
59789;BME280;47353;51.614;5.530;2024-01-25T05:32:42;102788.59;;;4.39;100.00
59789;BME280;47353;51.614;5.530;2024-01-25T05:35:08;102791.50;;;4.52;100.00
59789;BME280;47353;51.614;5.530;2024-01-25T05:37:33;102797.09;;;4.44;100.00
59789;BME280;47353;51.614;5.530;2024-01-25T05:39:59;102809.28;;;4.42;100.00
59789;BME280;47353;51.614;5.530;2024-01-25T05:42:24;102798.50;;;4.26;100.00
59789;BME280;47353;51.614;5.530;2024-01-25T05:44:50;102799.25;;;4.49;100.00
59789;BME280;47353;51.614;5.530;2024-01-25T05:47:16;102801.63;;;4.37;100.00
59789;BME280;47353;51.614;5.530;2024-01-25T05:49:41;102802.66;;;4.22;100.00
59789;BME280;47353;51.614;5.530;2024-01-25T05:52:07;102811.09;;;4.35;100.00
59789;BME280;47353;51.614;5.530;2024-01-25T05:54:32;102830.38;;;4.27;100.00
59789;BME280;47353;51.614;5.530;2024-01-25T05:56:57;102815.44;;;4.29;100.00
59789;BME280;47353;51.614;5.530;2024-01-25T05:59:23;102822.72;;;4.22;100.00
59789;BME280;47353;51.614;5.530;2024-01-25T06:01:48;102831.13;;;4.35;100.00
59789;BME280;47353;51.614;5.530;2024-01-25T06:04:14;102827.44;;;4.28;100.00
59789;BME280;47353;51.614;5.530;2024-01-25T06:06:39;102827.16;;;4.23;100.00
59789;BME280;47353;51.614;5.530;2024-01-25T06:09:04;102822.16;;;4.27;100.00
59789;BME280;47353;51.614;5.530;2024-01-25T06:11:30;102810.78;;;4.01;100.00
59789;BME280;47353;51.614;5.530;2024-01-25T06:13:56;102814.63;;;3.92;100.00
59789;BME280;47353;51.614;5.530;2024-01-25T06:16:22;102811.81;;;4.14;100.00
59789;BME280;47353;51.614;5.530;2024-01-25T06:18:47;102804.50;;;3.92;100.00
59789;BME280;47353;51.614;5.530;2024-01-25T06:21:13;102816.91;;;4.03;100.00
59789;BME280;47353;51.614;5.530;2024-01-25T06:23:38;102815.94;;;3.96;100.00
59789;BME280;47353;51.614;5.530;2024-01-25T06:26:04;102827.72;;;3.82;100.00
59789;BME280;47353;51.614;5.530;2024-01-25T06:28:29;102828.09;;;3.79;100.00
59789;BME280;47353;51.614;5.530;2024-01-25T06:30:55;102834.19;;;3.66;100.00
59789;BME280;47353;51.614;5.530;2024-01-25T06:33:20;102832.00;;;3.62;100.00
59789;BME280;47353;51.614;5.530;2024-01-25T06:35:45;102840.41;;;3.60;100.00
59789;BME280;47353;51.614;5.530;2024-01-25T06:38:12;102831.50;;;3.81;100.00
59789;BME280;47353;51.614;5.530;2024-01-25T06:40:37;102839.91;;;3.79;100.00
59789;BME280;47353;51.614;5.530;2024-01-25T06:43:03;102845.44;;;3.71;100.00
59789;BME280;47353;51.614;5.530;2024-01-25T06:45:29;102843.41;;;3.88;100.00
59789;BME280;47353;51.614;5.530;2024-01-25T06:47:54;102854.94;;;3.83;100.00
59789;BME280;47353;51.614;5.530;2024-01-25T06:50:20;102850.75;;;3.73;100.00
59789;BME280;47353;51.614;5.530;2024-01-25T06:52:45;102851.66;;;3.65;100.00
59789;BME280;47353;51.614;5.530;2024-01-25T06:55:11;102847.75;;;3.82;100.00
59789;BME280;47353;51.614;5.530;2024-01-25T06:57:38;102848.78;;;3.59;100.00
59789;BME280;47353;51.614;5.530;2024-01-25T07:00:03;102849.09;;;3.64;100.00
59789;BME280;47353;51.614;5.530;2024-01-25T07:02:29;102851.41;;;3.52;100.00
59789;BME280;47353;51.614;5.530;2024-01-25T07:04:55;102841.19;;;3.46;100.00
59789;BME280;47353;51.614;5.530;2024-01-25T07:07:21;102841.72;;;3.64;100.00
59789;BME280;47353;51.614;5.530;2024-01-25T07:09:46;102844.09;;;3.67;100.00
59789;BME280;47353;51.614;5.530;2024-01-25T07:12:12;102831.69;;;3.57;100.00
59789;BME280;47353;51.614;5.530;2024-01-25T07:14:37;102831.75;;;3.48;100.00
59789;BME280;47353;51.614;5.530;2024-01-25T07:17:03;102830.22;;;3.46;100.00
59789;BME280;47353;51.614;5.530;2024-01-25T07:19:29;102828.91;;;3.42;100.00
59789;BME280;47353;51.614;5.530;2024-01-25T07:21:54;102831.19;;;3.30;100.00
59789;BME280;47353;51.614;5.530;2024-01-25T07:24:19;102828.81;;;3.27;100.00
59789;BME280;47353;51.614;5.530;2024-01-25T07:26:45;102836.72;;;3.22;100.00
59789;BME280;47353;51.614;5.530;2024-01-25T07:29:10;102840.53;;;3.13;100.00
59789;BME280;47353;51.614;5.530;2024-01-25T07:31:36;102841.03;;;3.17;100.00
59789;BME280;47353;51.614;5.530;2024-01-25T07:34:01;102855.03;;;3.22;100.00
59789;BME280;47353;51.614;5.530;2024-01-25T07:36:26;102851.13;;;3.16;100.00
59789;BME280;47353;51.614;5.530;2024-01-25T07:38:52;102854.16;;;3.21;100.00
59789;BME280;47353;51.614;5.530;2024-01-25T07:41:17;102854.81;;;3.54;100.00
59789;BME280;47353;51.614;5.530;2024-01-25T07:43:43;102846.72;;;3.61;100.00
59789;BME280;47353;51.614;5.530;2024-01-25T07:46:09;102849.28;;;3.62;100.00
59789;BME280;47353;51.614;5.530;2024-01-25T07:48:35;102846.81;;;3.67;100.00
59789;BME280;47353;51.614;5.530;2024-01-25T07:51:01;102846.59;;;3.77;100.00
59789;BME280;47353;51.614;5.530;2024-01-25T07:53:26;102846.78;;;3.75;100.00
59789;BME280;47353;51.614;5.530;2024-01-25T07:55:52;102849.94;;;3.87;100.00
59789;BME280;47353;51.614;5.530;2024-01-25T07:58:17;102853.69;;;3.86;100.00
59789;BME280;47353;51.614;5.530;2024-01-25T08:00:43;102846.75;;;3.98;100.00
59789;BME280;47353;51.614;5.530;2024-01-25T08:03:09;102849.38;;;3.91;100.00
59789;BME280;47353;51.614;5.530;2024-01-25T08:05:35;102859.84;;;3.88;100.00
59789;BME280;47353;51.614;5.530;2024-01-25T08:08:00;102866.13;;;3.96;100.00
59789;BME280;47353;51.614;5.530;2024-01-25T08:10:25;102865.63;;;3.93;100.00
59789;BME280;47353;51.614;5.530;2024-01-25T08:12:51;102861.47;;;3.97;100.00
59789;BME280;47353;51.614;5.530;2024-01-25T08:15:17;102854.81;;;4.14;100.00
59789;BME280;47353;51.614;5.530;2024-01-25T08:17:42;102851.59;;;4.10;100.00
59789;BME280;47353;51.614;5.530;2024-01-25T08:20:09;102848.69;;;4.12;100.00
59789;BME280;47353;51.614;5.530;2024-01-25T08:22:36;102852.63;;;4.09;100.00
59789;BME280;47353;51.614;5.530;2024-01-25T08:25:01;102855.19;;;4.11;100.00
59789;BME280;47353;51.614;5.530;2024-01-25T08:27:26;102859.66;;;4.12;100.00
59789;BME280;47353;51.614;5.530;2024-01-25T08:29:54;102866.25;;;4.17;100.00
59789;BME280;47353;51.614;5.530;2024-01-25T08:32:20;102882.09;;;4.59;100.00
59789;BME280;47353;51.614;5.530;2024-01-25T08:34:45;102887.28;;;4.39;100.00
59789;BME280;47353;51.614;5.530;2024-01-25T08:37:11;102868.75;;;4.41;100.00
59789;BME280;47353;51.614;5.530;2024-01-25T08:39:36;102841.84;;;4.59;100.00
59789;BME280;47353;51.614;5.530;2024-01-25T08:42:01;102828.13;;;4.59;100.00
59789;BME280;47353;51.614;5.530;2024-01-25T08:44:30;102833.88;;;4.64;100.00
59789;BME280;47353;51.614;5.530;2024-01-25T08:46:55;102844.16;;;4.77;100.00
59789;BME280;47353;51.614;5.530;2024-01-25T08:49:21;102843.69;;;4.88;100.00
59789;BME280;47353;51.614;5.530;2024-01-25T08:51:46;102856.16;;;4.90;100.00
59789;BME280;47353;51.614;5.530;2024-01-25T08:54:12;102865.84;;;5.01;100.00
59789;BME280;47353;51.614;5.530;2024-01-25T08:56:37;102869.13;;;5.11;100.00
59789;BME280;47353;51.614;5.530;2024-01-25T08:59:03;102880.66;;;5.21;100.00
59789;BME280;47353;51.614;5.530;2024-01-25T09:01:28;102876.84;;;5.22;100.00
59789;BME280;47353;51.614;5.530;2024-01-25T09:03:54;102884.91;;;5.24;100.00
59789;BME280;47353;51.614;5.530;2024-01-25T09:06:19;102888.94;;;5.42;100.00
59789;BME280;47353;51.614;5.530;2024-01-25T09:08:44;102879.44;;;5.45;100.00
59789;BME280;47353;51.614;5.530;2024-01-25T09:11:10;102887.19;;;5.56;100.00
59789;BME280;47353;51.614;5.530;2024-01-25T09:13:35;102902.66;;;5.78;100.00
59789;BME280;47353;51.614;5.530;2024-01-25T09:16:01;102894.56;;;5.91;100.00
59789;BME280;47353;51.614;5.530;2024-01-25T09:18:26;102899.63;;;5.87;100.00
59789;BME280;47353;51.614;5.530;2024-01-25T09:20:51;102889.75;;;5.78;100.00
59789;BME280;47353;51.614;5.530;2024-01-25T09:23:17;102877.66;;;5.94;100.00
59789;BME280;47353;51.614;5.530;2024-01-25T09:25:44;102880.75;;;6.05;100.00
59789;BME280;47353;51.614;5.530;2024-01-25T09:28:10;102885.81;;;6.29;100.00
59789;BME280;47353;51.614;5.530;2024-01-25T09:30:40;102877.97;;;6.26;100.00
59789;BME280;47353;51.614;5.530;2024-01-25T09:33:06;102876.06;;;6.54;100.00
59789;BME280;47353;51.614;5.530;2024-01-25T09:35:32;102863.94;;;6.76;100.00
59789;BME280;47353;51.614;5.530;2024-01-25T09:37:57;102877.28;;;6.79;100.00
59789;BME280;47353;51.614;5.530;2024-01-25T09:40:22;102880.44;;;7.11;100.00
59789;BME280;47353;51.614;5.530;2024-01-25T09:42:48;102878.25;;;7.00;100.00
59789;BME280;47353;51.614;5.530;2024-01-25T09:45:17;102864.94;;;7.03;100.00
59789;BME280;47353;51.614;5.530;2024-01-25T09:47:47;102868.53;;;7.04;100.00
59789;BME280;47353;51.614;5.530;2024-01-25T09:50:13;102864.22;;;7.35;100.00
59789;BME280;47353;51.614;5.530;2024-01-25T09:52:43;102875.31;;;7.61;100.00
59789;BME280;47353;51.614;5.530;2024-01-25T09:55:12;102883.88;;;7.92;100.00
59789;BME280;47353;51.614;5.530;2024-01-25T09:57:45;102881.75;;;8.07;100.00
59789;BME280;47353;51.614;5.530;2024-01-25T10:00:12;102878.53;;;7.97;100.00
59789;BME280;47353;51.614;5.530;2024-01-25T10:02:38;102882.41;;;8.22;100.00
59789;BME280;47353;51.614;5.530;2024-01-25T10:05:04;102871.41;;;8.35;100.00
59789;BME280;47353;51.614;5.530;2024-01-25T10:07:56;102859.31;;;8.23;100.00
59789;BME280;47353;51.614;5.530;2024-01-25T10:10:26;102851.63;;;8.12;100.00
59789;BME280;47353;51.614;5.530;2024-01-25T10:12:55;102855.66;;;7.90;100.00
59789;BME280;47353;51.614;5.530;2024-01-25T10:15:20;102852.03;;;7.77;100.00
59789;BME280;47353;51.614;5.530;2024-01-25T10:17:46;102863.06;;;7.83;100.00
59789;BME280;47353;51.614;5.530;2024-01-25T10:20:14;102857.78;;;7.82;100.00
59789;BME280;47353;51.614;5.530;2024-01-25T10:22:39;102856.28;;;7.92;100.00
59789;BME280;47353;51.614;5.530;2024-01-25T10:25:11;102865.16;;;7.62;100.00
59789;BME280;47353;51.614;5.530;2024-01-25T10:27:37;102865.94;;;7.56;100.00
59789;BME280;47353;51.614;5.530;2024-01-25T10:30:06;102857.28;;;7.65;100.00
59789;BME280;47353;51.614;5.530;2024-01-25T10:32:31;102853.44;;;7.53;100.00
59789;BME280;47353;51.614;5.530;2024-01-25T10:34:58;102842.44;;;7.53;100.00
59789;BME280;47353;51.614;5.530;2024-01-25T10:37:24;102831.78;;;7.37;100.00
59789;BME280;47353;51.614;5.530;2024-01-25T10:39:54;102845.38;;;7.45;100.00
59789;BME280;47353;51.614;5.530;2024-01-25T10:42:20;102846.63;;;7.36;100.00
59789;BME280;47353;51.614;5.530;2024-01-25T10:44:46;102841.38;;;7.48;100.00
59789;BME280;47353;51.614;5.530;2024-01-25T10:47:12;102834.56;;;7.44;100.00
59789;BME280;47353;51.614;5.530;2024-01-25T10:49:37;102827.34;;;7.36;100.00
59789;BME280;47353;51.614;5.530;2024-01-25T10:52:05;102825.03;;;7.53;100.00
59789;BME280;47353;51.614;5.530;2024-01-25T10:54:31;102826.78;;;7.60;100.00
59789;BME280;47353;51.614;5.530;2024-01-25T10:56:58;102830.34;;;7.61;100.00
59789;BME280;47353;51.614;5.530;2024-01-25T10:59:24;102813.00;;;7.80;100.00
59789;BME280;47353;51.614;5.530;2024-01-25T11:01:50;102814.03;;;7.59;100.00
59789;BME280;47353;51.614;5.530;2024-01-25T11:04:16;102811.06;;;7.61;100.00
59789;BME280;47353;51.614;5.530;2024-01-25T11:06:44;102814.69;;;7.74;100.00
59789;BME280;47353;51.614;5.530;2024-01-25T11:09:16;102811.28;;;7.79;100.00
59789;BME280;47353;51.614;5.530;2024-01-25T11:11:47;102815.34;;;7.89;100.00
59789;BME280;47353;51.614;5.530;2024-01-25T11:14:16;102804.31;;;7.83;100.00
59789;BME280;47353;51.614;5.530;2024-01-25T11:16:42;102810.06;;;7.88;100.00
59789;BME280;47353;51.614;5.530;2024-01-25T11:19:16;102805.81;;;7.72;100.00
59789;BME280;47353;51.614;5.530;2024-01-25T11:21:44;102789.91;;;7.87;100.00
59789;BME280;47353;51.614;5.530;2024-01-25T11:26:39;102781.00;;;7.98;100.00
59789;BME280;47353;51.614;5.530;2024-01-25T11:29:04;102772.72;;;7.98;100.00
59789;BME280;47353;51.614;5.530;2024-01-25T11:31:30;102754.06;;;7.87;100.00
59789;BME280;47353;51.614;5.530;2024-01-25T11:33:57;102761.25;;;7.88;100.00
59789;BME280;47353;51.614;5.530;2024-01-25T11:36:24;102758.28;;;8.09;100.00
59789;BME280;47353;51.614;5.530;2024-01-25T11:38:50;102755.97;;;8.00;100.00
59789;BME280;47353;51.614;5.530;2024-01-25T11:41:15;102758.06;;;7.98;100.00
59789;BME280;47353;51.614;5.530;2024-01-25T11:43:41;102762.94;;;8.09;100.00
59789;BME280;47353;51.614;5.530;2024-01-25T11:46:06;102762.75;;;8.23;100.00
59789;BME280;47353;51.614;5.530;2024-01-25T11:48:32;102750.44;;;8.26;100.00
59789;BME280;47353;51.614;5.530;2024-01-25T11:51:00;102760.81;;;8.37;100.00
59789;BME280;47353;51.614;5.530;2024-01-25T11:53:25;102741.28;;;8.19;100.00
59789;BME280;47353;51.614;5.530;2024-01-25T11:55:52;102748.91;;;8.36;100.00
59789;BME280;47353;51.614;5.530;2024-01-25T11:58:20;102749.78;;;8.24;100.00
59789;BME280;47353;51.614;5.530;2024-01-25T12:00:45;102751.06;;;8.21;100.00
59789;BME280;47353;51.614;5.530;2024-01-25T12:03:11;102768.47;;;8.15;100.00
59789;BME280;47353;51.614;5.530;2024-01-25T12:05:36;102764.63;;;8.36;100.00
59789;BME280;47353;51.614;5.530;2024-01-25T12:08:08;102753.63;;;8.23;100.00
59789;BME280;47353;51.614;5.530;2024-01-25T12:10:34;102762.06;;;8.48;100.00
59789;BME280;47353;51.614;5.530;2024-01-25T12:13:00;102756.34;;;8.42;100.00
59789;BME280;47353;51.614;5.530;2024-01-25T12:15:25;102759.31;;;8.34;100.00
59789;BME280;47353;51.614;5.530;2024-01-25T12:17:50;102736.00;;;8.24;100.00
59789;BME280;47353;51.614;5.530;2024-01-25T12:20:16;102727.94;;;8.22;100.00
59789;BME280;47353;51.614;5.530;2024-01-25T12:22:42;102722.66;;;8.01;100.00
59789;BME280;47353;51.614;5.530;2024-01-25T12:25:09;102716.03;;;8.22;100.00
59789;BME280;47353;51.614;5.530;2024-01-25T12:27:43;102692.53;;;7.87;100.00
59789;BME280;47353;51.614;5.530;2024-01-25T12:30:12;102682.97;;;8.02;100.00
59789;BME280;47353;51.614;5.530;2024-01-25T12:32:38;102697.84;;;7.88;100.00
59789;BME280;47353;51.614;5.530;2024-01-25T12:35:04;102706.31;;;8.00;100.00
59789;BME280;47353;51.614;5.530;2024-01-25T12:37:30;102698.00;;;8.19;100.00
59789;BME280;47353;51.614;5.530;2024-01-25T12:39:55;102705.88;;;8.22;100.00
59789;BME280;47353;51.614;5.530;2024-01-25T12:42:21;102701.78;;;8.38;100.00
59789;BME280;47353;51.614;5.530;2024-01-25T12:44:47;102695.47;;;8.31;100.00
59789;BME280;47353;51.614;5.530;2024-01-25T12:47:13;102682.94;;;8.28;100.00